Time;durP1;ratioP1;P1;durP2;ratioP2;P2;SDS_P1;SDS_P2;PMS_P1;PMS_P2;Temp;Humidity;BMP_temperature;BMP_pressure;BME280_temperature;BME280_humidity;BME280_pressure;Samples;Min_cycle;Max_cycle;Signal;HPM_P1;HPM_P2
2022/06/25 00:00:26;;;;;;;9.88;3.42;;;;;;;18.46;70.79;98797.75;5140423;28;20524;-74
2022/06/25 00:03:16;;;;;;;6.65;3.30;;;;;;;18.35;71.42;98806.38;5139388;28;20096;-72
2022/06/25 00:06:07;;;;;;;5.32;2.95;;;;;;;18.33;71.04;98807.59;5139912;28;20066;-73
2022/06/25 00:08:57;;;;;;;6.10;2.63;;;;;;;18.27;70.99;98806.53;5141936;28;20161;-72
2022/06/25 00:14:56;;;;;;;11.50;3.03;;;;;;;18.07;71.30;98806.41;5139875;28;20494;-76
2022/06/25 00:17:47;;;;;;;5.88;2.72;;;;;;;18.00;70.90;98806.34;5141551;28;20051;-75
2022/06/25 00:20:38;;;;;;;7.07;2.60;;;;;;;17.81;71.90;98810.56;5152354;28;20047;-75
2022/06/25 00:23:36;;;;;;;5.70;2.42;;;;;;;17.64;72.05;98794.91;5140698;28;20050;-72
2022/06/25 00:26:27;;;;;;;4.43;2.83;;;;;;;17.76;71.09;98817.50;5145267;28;20433;-73
2022/06/25 00:29:18;;;;;;;4.40;2.40;;;;;;;17.65;70.49;98805.47;5141684;28;20054;-73
2022/06/25 00:32:09;;;;;;;4.07;2.50;;;;;;;17.73;70.94;98821.41;5149837;28;20125;-74
2022/06/25 00:35:00;;;;;;;5.25;2.42;;;;;;;17.68;70.78;98823.00;5139403;28;20049;-73
2022/06/25 00:37:50;;;;;;;6.32;2.60;;;;;;;17.94;70.59;98823.22;5142123;28;20633;-74
2022/06/25 00:40:40;;;;;;;7.05;2.28;;;;;;;17.75;70.60;98827.41;5140856;28;20053;-74
2022/06/25 00:43:31;;;;;;;5.40;2.70;;;;;;;17.94;70.46;98835.81;5138858;28;20145;-75
2022/06/25 00:46:21;;;;;;;5.75;2.60;;;;;;;18.03;70.18;98818.56;5143241;28;20595;-74
2022/06/25 00:49:12;;;;;;;4.32;2.30;;;;;;;17.97;70.75;98824.69;5144951;28;20062;-75
2022/06/25 00:52:13;;;;;;;4.13;2.70;;;;;;;17.96;70.61;98829.25;5137587;28;20472;-73
2022/06/25 00:55:11;;;;;;;5.30;2.80;;;;;;;17.73;71.54;98828.63;5143079;28;20053;-74
2022/06/25 00:58:02;;;;;;;2.53;2.33;;;;;;;17.71;71.26;98820.75;5143871;28;20051;-73
2022/06/25 01:00:53;;;;;;;11.20;2.85;;;;;;;17.70;71.78;98823.63;5141318;28;20055;-73
2022/06/25 01:03:43;;;;;;;4.88;2.53;;;;;;;17.70;71.33;98818.28;5140098;28;20412;-73
2022/06/25 01:06:34;;;;;;;7.95;2.50;;;;;;;17.63;70.82;98828.13;5132400;28;20054;-73
2022/06/25 01:09:25;;;;;;;3.75;2.25;;;;;;;17.55;71.30;98823.72;5142505;28;20157;-73
2022/06/25 01:12:16;;;;;;;3.88;2.28;;;;;;;17.49;71.50;98832.53;5147785;28;20494;-73
2022/06/25 01:15:14;;;;;;;5.50;2.30;;;;;;;17.33;71.69;98825.59;5143094;28;20062;-72
2022/06/25 01:18:09;;;;;;;14.02;3.95;;;;;;;17.40;71.04;98833.69;5140803;28;20050;-73
2022/06/25 01:21:02;;;;;;;3.80;2.42;;;;;;;17.37;70.88;98838.41;5152780;28;20054;-72
2022/06/25 01:23:52;;;;;;;5.75;2.78;;;;;;;17.25;70.97;98817.66;5143905;28;20492;-76
2022/06/25 01:26:43;;;;;;;4.10;2.53;;;;;;;17.32;71.69;98840.84;5143870;28;20053;-72
2022/06/25 01:29:33;;;;;;;6.88;2.80;;;;;;;17.16;71.71;98822.31;5143509;28;20050;-74
2022/06/25 01:32:23;;;;;;;8.43;2.75;;;;;;;17.27;71.27;98840.56;5147629;28;20050;-74
2022/06/25 01:35:14;;;;;;;12.57;2.78;;;;;;;17.13;71.44;98831.56;5141483;28;20069;-72
2022/06/25 01:38:05;;;;;;;4.07;2.83;;;;;;;16.83;72.65;98822.78;5144596;28;20077;-73
2022/06/25 01:40:56;;;;;;;10.93;2.47;;;;;;;16.99;71.64;98828.94;5143365;28;20150;-75
2022/06/25 01:43:46;;;;;;;7.13;2.97;;;;;;;16.95;71.36;98838.34;5143504;28;20054;-74
2022/06/25 01:46:39;;;;;;;8.68;2.65;;;;;;;16.91;71.76;98845.94;5152412;28;20392;-73
2022/06/25 01:49:30;;;;;;;10.73;2.33;;;;;;;16.89;71.40;98831.91;5142833;28;20112;-72
2022/06/25 01:52:20;;;;;;;7.43;3.03;;;;;;;17.11;70.92;98841.63;5144354;28;20065;-76
2022/06/25 01:55:10;;;;;;;13.07;2.75;;;;;;;16.82;71.73;98833.66;5146019;28;20069;-74
2022/06/25 01:58:04;;;;;;;16.07;2.80;;;;;;;16.83;71.49;98833.50;5145668;28;20051;-72
2022/06/25 02:00:55;;;;;;;7.32;2.60;;;;;;;17.13;70.28;98838.78;5136447;28;20134;-73
2022/06/25 02:03:45;;;;;;;8.35;2.85;;;;;;;16.84;71.97;98853.06;5143191;28;20054;-78
2022/06/25 02:06:35;;;;;;;4.22;3.10;;;;;;;16.95;71.04;98846.38;5145900;28;20101;-73
2022/06/25 02:09:25;;;;;;;13.98;3.28;;;;;;;16.62;71.07;98822.69;5146305;28;20057;-74
2022/06/25 02:12:15;;;;;;;12.73;2.97;;;;;;;16.48;71.69;98840.41;5147235;28;20046;-72
2022/06/25 02:15:07;;;;;;;10.23;3.30;;;;;;;16.50;71.51;98834.91;5144573;28;20172;-72
2022/06/25 02:17:57;;;;;;;10.18;2.97;;;;;;;16.50;70.92;98848.28;5141803;28;20058;-74
2022/06/25 02:20:48;;;;;;;10.25;3.13;;;;;;;16.45;71.41;98855.00;5143124;28;20101;-74
2022/06/25 02:23:38;;;;;;;8.82;2.60;;;;;;;16.40;71.85;98852.06;5142464;28;20183;-73
2022/06/25 02:26:29;;;;;;;10.10;3.00;;;;;;;16.38;71.88;98861.28;5145502;28;20050;-75
2022/06/25 02:29:19;;;;;;;10.27;2.97;;;;;;;16.42;71.93;98849.19;5155636;28;20046;-72
2022/06/25 02:32:12;;;;;;;9.15;2.78;;;;;;;16.40;71.47;98859.25;5143221;28;20055;-72
2022/06/25 02:35:03;;;;;;;12.35;3.22;;;;;;;16.55;71.98;98865.41;5141355;28;20137;-75
2022/06/25 02:37:53;;;;;;;6.80;2.63;;;;;;;16.56;71.38;98869.78;5153153;28;20117;-73
2022/06/25 02:40:47;;;;;;;9.13;3.08;;;;;;;16.56;70.82;98871.63;5155987;28;20064;-72
2022/06/25 02:43:38;;;;;;;8.50;2.92;;;;;;;16.61;71.66;98879.91;5141244;28;20051;-73
2022/06/25 02:46:58;;;;;;;5.88;2.90;;;;;;;16.33;71.74;98856.50;5138437;28;20136;-73
2022/06/25 02:49:55;;;;;;;7.47;2.70;;;;;;;16.42;71.30;98865.25;5139658;28;20057;-75
2022/06/25 02:52:45;;;;;;;7.30;2.90;;;;;;;16.43;71.57;98865.06;5156751;28;20142;-73
2022/06/25 02:58:55;;;;;;;4.63;2.50;;;;;;;16.39;71.82;98862.94;5142666;28;20053;-74
2022/06/25 03:01:50;;;;;;;11.88;2.88;;;;;;;16.46;71.26;98869.22;5140748;28;20093;-73
2022/06/25 03:04:44;;;;;;;6.60;3.28;;;;;;;16.25;71.63;98864.59;5142826;28;20173;-73
2022/06/25 03:07:34;;;;;;;9.07;2.45;;;;;;;16.29;71.29;98865.03;5147644;28;20112;-72
2022/06/25 03:10:25;;;;;;;5.70;2.80;;;;;;;16.01;72.16;98868.34;5145002;28;20099;-74
2022/06/25 03:13:15;;;;;;;11.48;2.55;;;;;;;16.00;72.31;98868.53;5140626;28;20053;-73
2022/06/25 03:16:08;;;;;;;10.98;2.63;;;;;;;15.98;70.92;98858.84;5153650;28;20762;-74
2022/06/25 03:18:58;;;;;;;6.60;2.78;;;;;;;15.89;71.76;98865.28;5139372;28;20196;-73
2022/06/25 03:22:14;;;;;;;11.60;3.45;;;;;;;15.81;72.09;98860.00;5143698;28;20565;-73
2022/06/25 03:25:06;;;;;;;12.85;2.33;;;;;;;15.88;71.23;98874.31;5140721;28;20567;-74
2022/06/25 03:27:57;;;;;;;10.23;2.45;;;;;;;15.92;72.25;98856.88;5139694;28;20058;-73
2022/06/25 03:30:48;;;;;;;9.15;2.70;;;;;;;16.06;71.42;98873.13;5135260;28;20073;-75
2022/06/25 03:33:40;;;;;;;17.98;2.50;;;;;;;16.01;71.66;98875.53;5142298;28;20057;-74
2022/06/25 03:36:37;;;;;;;13.68;3.10;;;;;;;16.02;71.64;98870.00;5148716;28;20055;-74
2022/06/25 03:39:27;;;;;;;11.40;3.20;;;;;;;16.02;71.58;98871.84;5144495;28;20059;-73
2022/06/25 03:42:18;;;;;;;10.23;2.78;;;;;;;15.96;71.26;98870.75;5155740;28;20148;-74
2022/06/25 03:45:27;;;;;;;4.22;2.45;;;;;;;16.09;71.56;98868.28;5145674;28;20145;-73
2022/06/25 03:48:18;;;;;;;10.95;3.00;;;;;;;16.04;71.45;98875.19;5156029;28;20069;-73
2022/06/25 03:51:28;;;;;;;9.57;3.35;;;;;;;15.87;72.15;98858.47;5142854;28;20089;-74
2022/06/25 03:54:20;;;;;;;5.28;2.72;;;;;;;15.78;72.65;98865.72;5155539;28;20057;-73
2022/06/25 03:57:11;;;;;;;12.05;3.35;;;;;;;16.06;71.88;98883.84;5155084;28;20233;-74
2022/06/25 04:00:30;;;;;;;10.95;3.38;;;;;;;15.87;72.73;98880.69;5131198;28;20125;-73
2022/06/25 04:03:23;;;;;;;9.75;3.10;;;;;;;15.85;71.96;98888.03;5139063;28;20073;-75
2022/06/25 04:06:27;;;;;;;9.33;3.67;;;;;;;15.85;72.60;98884.53;5142678;28;20065;-73
2022/06/25 04:09:22;;;;;;;9.18;3.90;;;;;;;15.86;72.81;98899.56;5137315;28;20133;-72
2022/06/25 04:12:13;;;;;;;15.32;3.75;;;;;;;15.90;72.36;98892.84;5141721;28;20111;-72
2022/06/25 04:15:04;;;;;;;6.82;3.20;;;;;;;15.84;73.27;98885.56;5139814;28;20572;-73
2022/06/25 04:17:55;;;;;;;10.90;3.35;;;;;;;15.94;72.38;98897.66;5141561;28;20179;-73
2022/06/25 04:20:46;;;;;;;5.60;3.05;;;;;;;15.89;72.10;98884.00;5137517;28;20053;-72
2022/06/25 04:23:38;;;;;;;14.70;3.60;;;;;;;16.04;72.53;98899.25;5152301;28;20065;-73
2022/06/25 04:26:32;;;;;;;;;;;;;;;16.37;73.33;98908.63;5156441;28;20054;-73
2022/06/25 04:29:24;;;;;;;7.38;4.20;;;;;;;16.55;73.07;98904.75;5140740;28;19937;-73
2022/06/25 04:32:35;;;;;;;15.68;4.43;;;;;;;16.81;73.29;98912.34;5141339;28;20051;-73
2022/06/25 04:35:34;;;;;;;5.93;4.10;;;;;;;16.86;73.08;98900.06;5155314;28;20108;-73
2022/06/25 04:38:38;;;;;;;;;;;;;;;17.06;72.81;98920.91;5139102;28;20039;-74
2022/06/25 04:41:29;;;;;;;10.48;4.75;;;;;;;17.13;72.02;98908.44;5141264;28;19922;-73
2022/06/25 04:44:24;;;;;;;11.38;5.00;;;;;;;17.15;71.81;98909.06;5142368;28;20057;-73
2022/06/25 04:47:16;;;;;;;5.28;4.03;;;;;;;17.17;72.40;98914.25;5153151;28;20098;-74
2022/06/25 04:50:15;;;;;;;8.02;4.07;;;;;;;17.32;71.90;98921.22;5156566;28;20057;-74
2022/06/25 04:53:05;;;;;;;6.95;4.10;;;;;;;17.26;72.44;98929.19;5146292;28;20074;-74
2022/06/25 04:55:56;;;;;;;10.82;4.13;;;;;;;17.31;73.16;98934.81;5143257;28;20058;-74
2022/06/25 04:58:46;;;;;;;5.07;3.95;;;;;;;17.40;72.92;98940.88;5159404;28;20047;-75
2022/06/25 05:01:59;;;;;;;12.45;4.30;;;;;;;17.53;72.65;98941.03;5140669;28;20058;-74
2022/06/25 05:05:09;;;;;;;9.32;4.38;;;;;;;17.64;72.47;98947.75;5143704;28;20051;-73
2022/06/25 05:07:59;;;;;;;13.73;4.30;;;;;;;17.75;72.52;98947.25;5142024;28;20418;-73
2022/06/25 05:10:50;;;;;;;14.13;4.00;;;;;;;17.87;71.92;98955.63;5143322;28;20177;-73
2022/06/25 05:13:41;;;;;;;9.90;3.80;;;;;;;17.85;72.32;98955.84;5143906;28;20077;-73
2022/06/25 05:16:31;;;;;;;7.75;3.28;;;;;;;17.95;70.63;98939.44;5144057;28;20061;-73
2022/06/25 05:19:22;;;;;;;7.03;3.13;;;;;;;18.04;70.93;98948.97;5141512;28;20057;-74
2022/06/25 05:22:13;;;;;;;5.85;3.30;;;;;;;18.14;70.33;98954.84;5143336;28;20420;-74
2022/06/25 05:25:03;;;;;;;8.57;3.25;;;;;;;18.12;70.80;98956.09;5154641;28;20509;-73
2022/06/25 05:27:54;;;;;;;6.30;3.28;;;;;;;18.14;71.16;98957.53;5142530;28;20113;-74
2022/06/25 05:30:44;;;;;;;9.07;2.85;;;;;;;18.26;70.84;98934.53;5155189;28;20054;-73
2022/06/25 05:33:34;;;;;;;7.10;3.20;;;;;;;18.81;69.73;98960.72;5148490;28;20421;-73
2022/06/25 05:36:25;;;;;;;4.95;3.00;;;;;;;19.05;69.87;98956.75;5145255;28;20058;-75
2022/06/25 05:39:15;;;;;;;7.50;3.20;;;;;;;19.50;67.36;98955.25;5140781;28;20050;-76
2022/06/25 05:42:06;;;;;;;4.28;2.75;;;;;;;19.27;66.84;98957.44;5142254;28;20067;-73
2022/06/25 05:44:56;;;;;;;4.10;2.85;;;;;;;19.36;66.56;98935.56;5141929;28;20125;-73
2022/06/25 05:47:48;;;;;;;8.23;3.03;;;;;;;19.54;66.98;98955.72;5142565;28;20411;-73
2022/06/25 05:50:38;;;;;;;4.85;2.20;;;;;;;19.25;67.08;98942.38;5142233;28;20218;-74
2022/06/25 05:53:28;;;;;;;5.57;2.30;;;;;;;19.17;67.06;98956.00;5141820;28;20681;-74
2022/06/25 05:56:18;;;;;;;6.90;2.65;;;;;;;19.25;68.38;98957.66;5158654;28;20047;-74
2022/06/25 05:59:08;;;;;;;3.88;2.85;;;;;;;19.36;66.89;98965.16;5145101;28;20050;-74
2022/06/25 06:01:58;;;;;;;5.63;2.60;;;;;;;19.13;67.83;98946.66;5144839;28;20053;-74
2022/06/25 06:04:49;;;;;;;5.53;3.05;;;;;;;19.33;67.62;98970.09;5143820;28;20062;-74
2022/06/25 06:07:39;;;;;;;5.18;2.70;;;;;;;19.28;68.61;98968.03;5142463;28;20070;-74
2022/06/25 06:10:30;;;;;;;5.38;3.00;;;;;;;19.30;68.49;98971.31;5144598;28;20102;-74
2022/06/25 06:13:23;;;;;;;4.47;2.50;;;;;;;19.34;68.45;98969.91;5143199;28;20145;-74
2022/06/25 06:16:13;;;;;;;6.13;2.60;;;;;;;19.34;68.15;98952.97;5133548;28;20117;-74
2022/06/25 06:19:03;;;;;;;3.38;2.53;;;;;;;19.43;67.64;98966.00;5141251;28;20052;-74
2022/06/25 06:21:53;;;;;;;4.55;2.55;;;;;;;19.87;67.03;98961.19;5140471;28;20154;-74
2022/06/25 06:24:43;;;;;;;5.53;2.45;;;;;;;19.83;68.03;98962.63;5141006;28;20062;-74
2022/06/25 06:27:33;;;;;;;7.68;2.50;;;;;;;19.89;67.01;98980.63;5142425;28;20638;-74
2022/06/25 06:30:24;;;;;;;4.60;2.20;;;;;;;20.06;66.66;98970.31;5141589;28;20057;-74
2022/06/25 06:33:14;;;;;;;7.25;2.30;;;;;;;20.01;66.32;98968.25;5142868;28;20050;-74
2022/06/25 06:36:05;;;;;;;5.60;2.30;;;;;;;20.23;65.56;98968.03;5141079;28;20072;-75
2022/06/25 06:38:55;;;;;;;6.10;2.10;;;;;;;20.28;66.57;98985.25;5145604;28;20409;-74
2022/06/25 06:41:45;;;;;;;10.45;2.25;;;;;;;20.52;65.43;98964.13;5144361;28;20047;-74
2022/06/25 06:44:35;;;;;;;4.30;2.25;;;;;;;20.71;65.10;98974.06;5142423;28;20537;-75
2022/06/25 06:47:26;;;;;;;6.80;2.20;;;;;;;20.74;66.22;98983.59;5139215;28;20050;-75
2022/06/25 06:50:16;;;;;;;5.07;1.88;;;;;;;21.23;63.64;98984.94;5145500;28;20122;-75
2022/06/25 06:53:07;;;;;;;2.95;1.85;;;;;;;21.38;62.68;98982.81;5141923;28;20053;-75
2022/06/25 06:55:57;;;;;;;5.03;2.13;;;;;;;22.41;60.94;98993.41;5142212;28;20050;-75
2022/06/25 06:58:48;;;;;;;2.30;1.60;;;;;;;23.32;57.40;98991.91;5140718;28;20137;-74
2022/06/25 07:01:39;;;;;;;3.33;1.63;;;;;;;23.90;56.79;98969.72;5138821;28;20109;-75
2022/06/25 07:04:30;;;;;;;1.50;1.30;;;;;;;24.18;53.99;98984.53;5141760;28;20077;-76
2022/06/25 07:07:20;;;;;;;3.10;1.70;;;;;;;25.08;52.30;98977.97;5143085;28;20699;-75
2022/06/25 07:10:10;;;;;;;5.93;1.55;;;;;;;25.37;53.33;98965.31;5142196;28;20079;-73
2022/06/25 07:13:00;;;;;;;4.97;1.50;;;;;;;25.94;50.00;98984.34;5137186;28;20050;-73
2022/06/25 07:15:50;;;;;;;3.83;1.05;;;;;;;26.14;50.25;98975.75;5133682;28;20053;-74
2022/06/25 07:18:40;;;;;;;1.55;1.25;;;;;;;26.73;48.61;98971.81;5135652;28;20508;-77
2022/06/25 07:21:31;;;;;;;3.75;1.38;;;;;;;27.06;49.36;98976.34;5134260;28;20102;-74
2022/06/25 07:24:21;;;;;;;4.53;1.20;;;;;;;27.45;46.12;98963.53;5136464;28;20062;-74
2022/06/25 07:27:11;;;;;;;2.22;1.23;;;;;;;27.81;46.20;98958.50;5138998;28;20093;-74
2022/06/25 07:30:01;;;;;;;2.08;1.30;;;;;;;28.21;43.62;98960.78;5139959;28;20537;-72
2022/06/25 07:32:52;;;;;;;3.67;1.23;;;;;;;27.40;45.17;98958.84;5133965;28;20063;-71
2022/06/25 07:35:42;;;;;;;2.03;1.15;;;;;;;27.15;45.61;98961.25;5136917;28;20042;-71
2022/06/25 07:38:33;;;;;;;3.03;1.08;;;;;;;28.16;42.33;98955.28;5136920;28;20094;-72
2022/06/25 07:41:23;;;;;;;3.40;1.00;;;;;;;27.80;44.71;98951.41;5143835;28;20050;-73
2022/06/25 07:44:14;;;;;;;1.35;0.77;;;;;;;28.02;43.19;98951.34;5144253;28;20520;-72
2022/06/25 07:47:04;;;;;;;0.90;0.90;;;;;;;28.44;45.22;98950.63;5138537;28;20207;-74
2022/06/25 07:53:03;;;;;;;4.13;1.38;;;;;;;28.29;41.44;98949.41;5140880;28;20449;-77
2022/06/25 07:55:53;;;;;;;2.47;1.02;;;;;;;28.06;42.88;98920.59;5138384;28;20440;-71
2022/06/25 07:58:43;;;;;;;2.58;1.23;;;;;;;28.63;45.28;98946.41;5154231;28;20074;-72
2022/06/25 08:01:33;;;;;;;1.02;0.98;;;;;;;28.62;45.40;98936.56;5139046;28;20141;-73
2022/06/25 08:04:23;;;;;;;3.50;1.27;;;;;;;29.39;43.48;98942.44;5141822;28;20524;-74
2022/06/25 08:07:14;;;;;;;1.52;1.17;;;;;;;29.79;44.30;98947.19;5138340;28;20057;-74
2022/06/25 08:10:05;;;;;;;4.75;1.00;;;;;;;30.00;38.66;98942.59;5138905;28;20062;-76
2022/06/25 08:12:56;;;;;;;4.43;1.00;;;;;;;29.94;41.17;98928.09;5138585;28;20050;-74
2022/06/25 08:15:46;;;;;;;4.68;1.20;;;;;;;29.77;40.24;98941.22;5139558;28;20050;-77
2022/06/25 08:18:38;;;;;;;5.93;1.25;;;;;;;28.75;42.84;98929.84;5140049;28;20140;-74
2022/06/25 08:21:29;;;;;;;2.47;1.10;;;;;;;29.16;43.91;98921.88;5137035;28;20517;-75
2022/06/25 08:24:19;;;;;;;1.52;1.20;;;;;;;29.56;40.05;98925.81;5142961;28;20104;-75
2022/06/25 08:27:10;;;;;;;2.95;1.10;;;;;;;30.03;40.53;98935.75;5138004;28;20058;-75
2022/06/25 08:30:01;;;;;;;2.42;1.10;;;;;;;30.70;40.37;98928.34;5141923;28;20057;-75
2022/06/25 08:32:51;;;;;;;2.10;1.10;;;;;;;29.35;43.48;98925.75;5140320;28;20054;-76
2022/06/25 08:35:42;;;;;;;2.05;1.30;;;;;;;29.94;41.17;98928.09;5136710;28;20680;-76
2022/06/25 08:38:32;;;;;;;3.10;1.42;;;;;;;30.30;38.01;98925.41;5136871;28;20055;-74
2022/06/25 08:41:23;;;;;;;1.75;1.30;;;;;;;30.41;40.56;98928.94;5132906;28;20982;-77
2022/06/25 08:44:13;;;;;;;2.15;1.02;;;;;;;29.71;40.32;98928.63;5131043;28;20057;-76
2022/06/25 08:47:03;;;;;;;3.22;1.50;;;;;;;28.87;39.82;98913.25;5134005;28;20069;-75
2022/06/25 08:49:53;;;;;;;3.17;1.45;;;;;;;30.37;39.22;98916.91;5146264;28;20130;-75
2022/06/25 08:52:47;;;;;;;2.35;1.40;;;;;;;30.75;39.04;98920.94;5141060;28;20054;-76
2022/06/25 08:55:41;;;;;;;3.63;1.30;;;;;;;31.18;37.52;98918.63;5137017;28;20059;-73
2022/06/25 08:58:32;;;;;;;2.10;1.05;;;;;;;31.26;36.41;98909.84;5142228;28;20141;-72
2022/06/25 09:01:23;;;;;;;1.77;1.15;;;;;;;31.26;37.60;98904.34;5153703;28;20113;-77
2022/06/25 09:04:13;;;;;;;3.22;1.30;;;;;;;31.49;35.86;98913.00;5153916;28;20065;-75
2022/06/25 09:07:14;;;;;;;1.52;1.30;;;;;;;30.85;37.89;98901.78;5138170;28;20055;-76
2022/06/25 09:10:05;;;;;;;4.18;1.25;;;;;;;30.02;39.51;98906.78;5139039;28;20047;-76
2022/06/25 09:12:58;;;;;;;3.67;1.45;;;;;;;31.26;38.40;98907.09;5137561;28;20055;-76
2022/06/25 09:15:48;;;;;;;3.95;1.27;;;;;;;31.51;39.32;98881.50;5138817;28;20057;-76
2022/06/25 09:18:39;;;;;;;3.38;1.10;;;;;;;30.88;37.28;98898.47;5135610;28;20062;-76
2022/06/25 09:21:40;;;;;;;2.45;1.05;;;;;;;30.95;40.13;98881.75;5134232;28;20473;-77
2022/06/25 09:24:50;;;;;;;3.75;1.10;;;;;;;31.66;39.56;98899.78;5136043;28;21294;-76
2022/06/25 09:27:40;;;;;;;3.10;1.10;;;;;;;30.31;39.91;98882.47;5146530;28;20047;-75
2022/06/25 09:30:31;;;;;;;1.67;1.40;;;;;;;31.23;37.18;98893.16;5132691;28;20785;-75
2022/06/25 09:33:21;;;;;;;2.55;1.10;;;;;;;30.32;38.07;98873.97;5133293;28;20062;-74
2022/06/25 09:36:11;;;;;;;1.17;1.10;;;;;;;30.58;38.60;98884.88;5137079;28;20062;-75
2022/06/25 09:39:03;;;;;;;3.15;1.20;;;;;;;31.23;38.19;98887.66;5140475;28;20058;-76
2022/06/25 09:41:53;;;;;;;1.77;0.80;;;;;;;31.33;36.17;98877.50;5150959;28;20062;-74
2022/06/25 09:44:44;;;;;;;1.90;1.17;;;;;;;31.28;37.35;98869.25;5144136;28;20445;-74
2022/06/25 09:47:40;;;;;;;4.80;1.55;;;;;;;29.99;36.77;98885.44;5141557;28;20081;-75
2022/06/25 09:50:30;;;;;;;3.38;1.33;;;;;;;30.74;37.69;98880.19;5143011;28;20062;-73
2022/06/25 09:53:25;;;;;;;6.82;1.20;;;;;;;31.26;38.49;98884.34;5142349;28;20088;-75
2022/06/25 09:56:18;;;;;;;4.47;1.23;;;;;;;31.52;36.20;98871.34;5142116;28;20130;-74
2022/06/25 09:59:10;;;;;;;5.40;0.90;;;;;;;31.82;35.62;98859.34;5141148;28;20103;-74
2022/06/25 10:02:03;;;;;;;2.90;1.33;;;;;;;31.43;34.71;98868.41;5139667;28;20645;-73
2022/06/25 10:04:59;;;;;;;2.70;1.05;;;;;;;31.18;35.61;98865.78;5136755;28;20054;-73
2022/06/25 10:08:00;;;;;;;1.30;0.90;;;;;;;31.30;35.60;98878.03;5140661;28;20464;-73
2022/06/25 10:10:50;;;;;;;3.10;1.10;;;;;;;30.89;37.77;98872.75;5138960;28;20094;-73
2022/06/25 10:13:42;;;;;;;2.45;1.15;;;;;;;30.76;36.25;98872.47;5141459;28;20596;-73
2022/06/25 10:16:33;;;;;;;3.45;1.38;;;;;;;31.19;38.92;98875.63;5154021;28;20061;-73
2022/06/25 10:19:24;;;;;;;1.70;1.20;;;;;;;31.33;37.64;98866.53;5139887;28;20050;-76
2022/06/25 10:22:15;;;;;;;2.53;1.30;;;;;;;30.60;36.16;98864.34;5140618;28;20090;-73
2022/06/25 10:25:10;;;;;;;1.85;1.15;;;;;;;31.21;36.49;98862.47;5137006;28;20055;-72
2022/06/25 10:28:12;;;;;;;1.42;1.27;;;;;;;30.75;36.45;98860.72;5135798;28;21705;-73
2022/06/25 10:31:10;;;;;;;11.50;1.55;;;;;;;30.81;39.23;98843.22;5137947;28;20421;-74
2022/06/25 10:34:03;;;;;;;3.03;1.10;;;;;;;31.29;38.07;98854.50;5138089;28;20052;-73
2022/06/25 10:36:58;;;;;;;3.53;1.00;;;;;;;31.15;34.66;98847.97;5139899;28;20055;-74
2022/06/25 10:39:52;;;;;;;1.42;0.98;;;;;;;30.74;34.63;98834.47;5141056;28;20057;-72
2022/06/25 10:43:01;;;;;;;4.05;1.77;;;;;;;31.06;35.63;98844.19;5140104;28;20047;-74
2022/06/25 10:45:51;;;;;;;4.32;1.25;;;;;;;30.77;36.35;98836.66;5153083;28;20081;-76
2022/06/25 10:48:56;;;;;;;3.20;1.52;;;;;;;31.35;33.96;98834.19;5151525;28;20049;-73
2022/06/25 10:51:48;;;;;;;9.82;4.70;;;;;;;30.63;34.59;98820.00;5140302;28;20059;-75
2022/06/25 10:54:39;;;;;;;2.05;1.30;;;;;;;30.81;34.51;98826.78;5141239;28;20058;-75
2022/06/25 10:57:39;;;;;;;2.75;1.10;;;;;;;31.11;34.12;98825.00;5141877;28;20504;-78
2022/06/25 11:01:06;;;;;;;3.38;1.25;;;;;;;31.24;34.29;98807.13;5137048;28;20081;-76
2022/06/25 11:03:58;;;;;;;1.45;1.20;;;;;;;30.91;34.98;98795.81;5141973;28;20189;-75
2022/06/25 11:06:49;;;;;;;5.07;1.33;;;;;;;30.95;34.27;98802.34;5151374;28;20114;-76
2022/06/25 11:09:54;;;;;;;3.90;1.20;;;;;;;30.31;34.63;98808.63;5136502;28;20045;-74
2022/06/25 11:12:48;;;;;;;4.15;1.40;;;;;;;29.75;35.55;98804.00;5135904;28;20466;-75
2022/06/25 11:15:44;;;;;;;2.80;1.30;;;;;;;30.04;37.76;98807.00;5153678;28;20518;-77
2022/06/25 11:18:34;;;;;;;2.35;1.10;;;;;;;29.99;36.00;98812.47;5141815;28;20654;-74
2022/06/25 11:21:31;;;;;;;6.63;1.45;;;;;;;29.80;36.27;98809.50;5137942;28;20141;-75
2022/06/25 11:24:28;;;;;;;5.22;1.25;;;;;;;29.90;38.52;98804.00;5151214;28;20516;-77
2022/06/25 11:30:28;;;;;;;2.53;1.30;;;;;;;30.16;37.51;98801.22;5135212;28;20054;-76
2022/06/25 11:33:18;;;;;;;3.65;1.30;;;;;;;30.59;38.93;98801.66;5136176;28;20544;-76
2022/06/25 11:36:10;;;;;;;4.88;1.27;;;;;;;30.25;37.69;98799.59;5140226;28;20171;-75
2022/06/25 11:39:00;;;;;;;3.58;1.00;;;;;;;30.07;37.38;98795.50;5135369;28;20051;-72
2022/06/25 11:41:51;;;;;;;1.25;1.15;;;;;;;30.08;35.40;98779.91;5132508;28;20062;-74
2022/06/25 11:44:49;;;;;;;1.38;1.20;;;;;;;30.11;37.09;98795.78;5136070;28;20497;-75
2022/06/25 11:47:39;;;;;;;2.85;1.20;;;;;;;29.98;36.90;98786.22;5135946;28;20775;-74
2022/06/25 11:50:30;;;;;;;1.60;1.02;;;;;;;30.07;35.74;98795.50;5134970;28;20054;-72
2022/06/25 11:53:20;;;;;;;3.65;1.50;;;;;;;29.70;37.48;98795.78;5133471;28;20076;-71
2022/06/25 11:56:11;;;;;;;2.88;1.17;;;;;;;29.38;36.73;98785.94;5134323;28;20506;-74
2022/06/25 11:59:01;;;;;;;4.57;1.40;;;;;;;29.66;38.30;98794.72;5135977;28;20606;-75
2022/06/25 12:01:52;;;;;;;2.53;1.30;;;;;;;29.70;37.72;98790.34;5135236;28;20516;-74
2022/06/25 12:04:51;;;;;;;1.48;1.35;;;;;;;29.88;36.95;98778.03;5136234;28;20054;-77
2022/06/25 12:07:44;;;;;;;3.75;1.30;;;;;;;29.59;36.87;98775.84;5132005;28;20534;-74
2022/06/25 12:10:34;;;;;;;2.00;1.10;;;;;;;29.86;39.63;98772.03;5127801;28;20122;-73
2022/06/25 12:13:29;;;;;;;2.13;1.25;;;;;;;29.95;37.52;98773.09;5139108;28;20211;-75
2022/06/25 12:16:19;;;;;;;5.82;1.50;;;;;;;28.62;37.59;98775.63;5132746;28;20544;-74
2022/06/25 12:19:10;;;;;;;3.13;1.17;;;;;;;29.14;38.16;98763.81;5130798;28;20054;-76
2022/06/25 12:22:00;;;;;;;6.28;0.90;;;;;;;29.06;36.16;98766.22;5151362;28;20437;-76
2022/06/25 12:24:51;;;;;;;1.23;1.05;;;;;;;29.19;36.98;98746.59;5141474;28;20193;-74
2022/06/25 12:27:46;;;;;;;2.63;1.23;;;;;;;29.42;34.45;98756.97;5137427;28;20057;-73
2022/06/25 12:30:36;;;;;;;3.83;1.27;;;;;;;28.93;36.29;98760.16;5139611;28;20063;-72
2022/06/25 12:33:28;;;;;;;1.42;1.10;;;;;;;28.88;37.20;98759.34;5139678;28;20484;-72
2022/06/25 12:36:18;;;;;;;3.20;1.10;;;;;;;28.99;36.32;98750.91;5140680;28;20058;-72
2022/06/25 12:39:30;;;;;;;5.45;1.42;;;;;;;29.23;36.45;98745.78;5138383;28;20125;-72
2022/06/25 12:42:21;;;;;;;2.03;1.30;;;;;;;29.28;35.86;98744.97;5143163;28;20176;-73
2022/06/25 12:45:18;;;;;;;1.40;1.30;;;;;;;29.33;36.31;98739.50;5140258;28;20196;-71
2022/06/25 12:48:09;;;;;;;1.85;1.13;;;;;;;28.97;35.86;98734.00;5138586;28;20102;-72
2022/06/25 12:51:13;;;;;;;2.72;1.20;;;;;;;28.98;36.68;98732.06;5138828;28;20497;-71
2022/06/25 12:54:04;;;;;;;1.60;0.98;;;;;;;28.80;37.38;98728.75;5138174;28;20057;-71
2022/06/25 12:56:54;;;;;;;4.63;1.10;;;;;;;28.99;36.89;98726.34;5140181;28;20066;-72
2022/06/25 12:59:45;;;;;;;3.88;1.27;;;;;;;29.08;35.30;98721.19;5135675;28;20066;-72
2022/06/25 13:02:37;;;;;;;1.92;1.10;;;;;;;29.00;36.11;98719.81;5137221;28;20060;-72
2022/06/25 13:05:34;;;;;;;2.22;1.30;;;;;;;28.82;37.91;98714.03;5139964;28;20058;-72
2022/06/25 13:08:24;;;;;;;3.05;1.33;;;;;;;28.36;36.14;98722.84;5146743;28;20061;-72
2022/06/25 13:11:19;;;;;;;2.75;1.35;;;;;;;28.48;37.05;98722.66;5145776;28;20073;-72
2022/06/25 13:14:09;;;;;;;1.50;1.20;;;;;;;28.31;36.62;98715.50;5146792;28;20050;-71
2022/06/25 13:17:00;;;;;;;3.38;1.10;;;;;;;28.66;36.40;98713.16;5142805;28;20638;-73
2022/06/25 13:19:51;;;;;;;1.73;1.45;;;;;;;28.54;36.52;98711.50;5141264;23;20051;-82
2022/06/25 13:22:42;;;;;;;4.60;1.02;;;;;;;28.73;35.17;98711.00;5120516;28;20150;-84
2022/06/25 13:25:32;;;;;;;2.20;1.17;;;;;;;28.81;36.71;98705.03;5130123;28;20106;-84
2022/06/25 13:28:22;;;;;;;1.98;1.10;;;;;;;28.44;35.30;98697.81;5131101;28;20413;-82
2022/06/25 13:31:15;;;;;;;1.33;0.75;;;;;;;28.61;35.37;98713.13;5114883;29;20055;-83
2022/06/25 13:34:05;;;;;;;4.50;1.23;;;;;;;28.71;36.26;98714.00;5129188;28;20162;-85
2022/06/25 13:36:56;;;;;;;1.77;0.80;;;;;;;28.97;35.00;98716.78;5132735;28;20081;-83
2022/06/25 13:39:46;;;;;;;1.50;1.08;;;;;;;28.78;36.48;98716.47;5115869;28;20044;-85
2022/06/25 13:42:37;;;;;;;2.47;1.10;;;;;;;28.64;35.44;98701.69;5129395;28;20490;-84